Time;durP1;ratioP1;P1;durP2;ratioP2;P2;SDS_P1;SDS_P2;PMS_P1;PMS_P2;Temp;Humidity;BMP_temperature;BMP_pressure;BME280_temperature;BME280_humidity;BME280_pressure;Samples;Min_cycle;Max_cycle;Signal;HPM_P1;HPM_P2
2023/11/15 00:02:25;;;;;;;9.40;4.10;;;;;;;7.90;100.00;97872.54;435594;1253;138985;-63
2023/11/15 00:12:32;;;;;;;8.30;3.20;;;;;;;7.91;100.00;97867.46;435389;1251;138888;-62
2023/11/15 00:22:39;;;;;;;7.00;4.30;;;;;;;7.89;100.00;97863.23;435026;1254;139088;-62
2023/11/15 00:32:45;;;;;;;7.00;4.40;;;;;;;7.87;100.00;97852.95;435356;1253;138755;-62
2023/11/15 00:42:52;;;;;;;8.50;4.20;;;;;;;7.88;100.00;97854.46;435365;1253;138633;-62
2023/11/15 00:52:58;;;;;;;7.00;2.90;;;;;;;7.85;100.00;97846.84;436045;1253;140929;-63
2023/11/15 01:03:05;;;;;;;6.50;3.00;;;;;;;7.74;100.00;97841.05;435539;1254;139820;-63
2023/11/15 01:13:12;;;;;;;8.10;3.50;;;;;;;7.53;100.00;97839.59;435970;1254;140051;-62
2023/11/15 01:23:19;;;;;;;4.50;2.70;;;;;;;7.56;100.00;97839.20;435399;1254;140858;-64
2023/11/15 01:33:26;;;;;;;8.20;4.20;;;;;;;7.60;100.00;97835.92;435872;1250;139825;-63
2023/11/15 01:43:31;;;;;;;;;;;;;;;7.62;100.00;97836.79;437091;1254;139877;-62
2023/11/15 01:53:39;;;;;;;8.80;3.40;;;;;;;7.64;100.00;97839.41;435056;1255;125061;-63
2023/11/15 02:03:46;;;;;;;6.70;3.30;;;;;;;7.65;100.00;97842.27;435808;1255;139049;-63
2023/11/15 02:13:53;;;;;;;6.80;3.60;;;;;;;7.68;100.00;97841.05;436670;1251;138673;-63
2023/11/15 02:23:59;;;;;;;6.40;3.70;;;;;;;7.70;100.00;97838.91;435092;1254;139145;-63
2023/11/15 02:34:06;;;;;;;5.50;3.00;;;;;;;7.70;100.00;97844.48;436289;1253;138712;-63
2023/11/15 02:44:12;;;;;;;7.40;3.10;;;;;;;7.64;100.00;97837.89;435517;1253;139174;-63
2023/11/15 02:54:18;;;;;;;5.50;3.10;;;;;;;7.54;100.00;97835.00;435472;1253;139176;-63
2023/11/15 03:04:24;;;;;;;5.40;3.40;;;;;;;7.49;100.00;97833.63;435215;1253;140124;-63
2023/11/15 03:14:31;;;;;;;6.00;3.20;;;;;;;7.55;100.00;97840.45;437602;1250;139114;-62
2023/11/15 03:24:38;;;;;;;7.10;3.00;;;;;;;7.63;100.00;97846.48;436858;1250;139383;-64
2023/11/15 03:34:46;;;;;;;5.40;3.00;;;;;;;7.73;100.00;97853.35;436466;1250;139112;-63
2023/11/15 03:44:52;;;;;;;4.00;3.70;;;;;;;7.83;100.00;97861.45;435408;1251;139087;-64
2023/11/15 03:54:59;;;;;;;5.50;3.70;;;;;;;7.90;100.00;97861.73;435575;1253;138984;-62
2023/11/15 04:05:06;;;;;;;7.90;4.10;;;;;;;7.95;100.00;97870.96;436367;1251;139694;-63
2023/11/15 04:15:12;;;;;;;;;;;;;;;7.98;100.00;97873.30;436041;1255;138678;-63
2023/11/15 04:25:18;;;;;;;5.50;2.60;;;;;;;8.00;100.00;97873.31;436809;1252;125172;-62
2023/11/15 04:35:25;;;;;;;5.60;2.20;;;;;;;8.02;100.00;97880.33;436775;1255;139435;-63
2023/11/15 04:45:31;;;;;;;4.00;2.10;;;;;;;8.03;100.00;97880.27;436348;1253;139691;-63
2023/11/15 04:55:37;;;;;;;6.80;2.30;;;;;;;8.03;100.00;97884.59;435855;1253;138904;-63
2023/11/15 05:05:45;;;;;;;8.70;2.10;;;;;;;8.04;100.00;97888.15;435317;1253;138709;-63
2023/11/15 05:15:52;;;;;;;3.60;2.50;;;;;;;8.04;100.00;97898.83;435388;1251;140084;-63
2023/11/15 05:25:58;;;;;;;4.10;1.90;;;;;;;8.01;100.00;97907.77;437305;1251;138761;-62
2023/11/15 05:36:05;;;;;;;3.50;1.60;;;;;;;7.95;100.00;97912.75;435695;1253;139182;-63
2023/11/15 05:46:12;;;;;;;2.60;2.20;;;;;;;7.90;100.00;97919.78;437034;1254;139774;-63
2023/11/15 05:56:19;;;;;;;5.40;2.90;;;;;;;7.87;100.00;97931.84;435690;1253;138647;-63
2023/11/15 06:06:27;;;;;;;4.00;2.30;;;;;;;7.86;100.00;97939.11;436181;1254;138707;-63
2023/11/15 06:16:36;;;;;;;6.50;3.30;;;;;;;7.84;100.00;97946.70;435837;1251;138795;-65
2023/11/15 06:26:43;;;;;;;3.30;3.00;;;;;;;7.88;100.00;97960.90;436345;1251;138967;-63
2023/11/15 06:36:49;;;;;;;4.90;4.00;;;;;;;7.92;100.00;97975.92;436027;1254;139059;-63
2023/11/15 06:46:56;;;;;;;5.50;4.10;;;;;;;7.92;100.00;97982.68;435484;1251;139137;-62
2023/11/15 06:57:03;;;;;;;5.20;4.40;;;;;;;7.88;100.00;97988.77;436067;1253;139599;-62
2023/11/15 07:07:10;;;;;;;7.60;4.60;;;;;;;7.82;100.00;97994.92;435838;1253;140405;-62
2023/11/15 07:17:19;;;;;;;5.40;4.80;;;;;;;7.73;100.00;98004.70;435837;1254;139315;-69
2023/11/15 07:27:26;;;;;;;5.90;5.40;;;;;;;7.73;100.00;98019.32;437904;1251;138850;-74
2023/11/15 07:37:34;;;;;;;6.70;5.90;;;;;;;7.79;100.00;98029.89;436525;1253;139617;-70
2023/11/15 07:47:41;;;;;;;15.50;7.80;;;;;;;7.79;100.00;98036.15;436468;1251;138831;-75
2023/11/15 07:57:51;;;;;;;9.30;7.70;;;;;;;7.87;100.00;98046.48;436302;1251;140357;-70
2023/11/15 08:07:57;;;;;;;8.30;7.40;;;;;;;7.97;100.00;98060.00;436628;1251;138893;-67
2023/11/15 08:18:03;;;;;;;7.00;6.30;;;;;;;8.13;100.00;98070.80;435846;1253;139288;-68
2023/11/15 08:28:10;;;;;;;4.90;4.40;;;;;;;8.30;100.00;98079.45;436207;1254;138944;-70
2023/11/15 08:38:18;;;;;;;3.40;3.10;;;;;;;8.29;100.00;98095.02;435970;1251;140162;-67
2023/11/15 08:48:24;;;;;;;4.50;4.00;;;;;;;8.26;100.00;98104.33;436100;1253;139094;-68
2023/11/15 08:58:32;;;;;;;5.60;5.10;;;;;;;8.24;100.00;98111.44;437080;1253;139121;-67
2023/11/15 09:08:39;;;;;;;7.30;6.60;;;;;;;8.33;100.00;98118.83;436177;1254;138710;-62
2023/11/15 09:18:45;;;;;;;11.20;6.70;;;;;;;8.36;100.00;98138.72;435719;1251;139215;-62
2023/11/15 09:28:53;;;;;;;8.60;6.50;;;;;;;8.46;100.00;98135.21;437709;1250;138830;-64
2023/11/15 09:38:59;;;;;;;9.00;5.40;;;;;;;8.52;100.00;98155.50;435903;1251;138744;-65
2023/11/15 09:49:06;;;;;;;11.30;4.00;;;;;;;8.58;100.00;98162.04;436674;1253;139231;-64
2023/11/15 09:59:14;;;;;;;4.90;2.50;;;;;;;8.61;100.00;98171.25;435651;1254;139022;-65
2023/11/15 10:09:35;;;;;;;4.00;2.80;;;;;;;8.59;100.00;98185.55;436187;1253;138719;-71
2023/11/15 10:19:41;;;;;;;4.70;4.20;;;;;;;8.54;100.00;98185.88;438373;1251;139319;-64
2023/11/15 10:29:49;;;;;;;2.70;2.20;;;;;;;8.77;100.00;98187.58;435958;1251;139081;-63
2023/11/15 10:39:56;;;;;;;2.20;1.70;;;;;;;9.17;100.00;98195.27;435931;1254;138974;-65
2023/11/15 10:50:13;;;;;;;3.20;2.80;;;;;;;9.36;100.00;98203.35;437972;1251;139658;-72
2023/11/15 11:00:21;;;;;;;3.60;3.00;;;;;;;9.66;100.00;98213.52;439659;1253;140197;-71
2023/11/15 11:10:33;;;;;;;6.80;3.90;;;;;;;9.84;100.00;98214.42;436605;1251;138995;-69
2023/11/15 11:20:41;;;;;;;5.70;3.00;;;;;;;10.03;100.00;98211.81;436576;1251;139376;-64
2023/11/15 11:31:18;;;;;;;5.70;2.80;;;;;;;10.06;100.00;98219.83;436168;1251;139271;-68
2023/11/15 11:41:25;;;;;;;2.90;2.20;;;;;;;9.74;100.00;98242.67;435834;1249;140545;-62
2023/11/15 11:51:33;;;;;;;2.20;2.00;;;;;;;9.23;100.00;98256.91;435716;1249;140884;-62
2023/11/15 12:01:51;;;;;;;3.70;2.90;;;;;;;8.94;100.00;98268.44;435454;1251;139341;-63
2023/11/15 12:11:58;;;;;;;3.00;2.60;;;;;;;8.86;100.00;98270.33;436133;1251;139177;-64
2023/11/15 12:22:05;;;;;;;3.20;2.00;;;;;;;8.70;100.00;98287.44;436288;1251;138913;-63
2023/11/15 12:32:13;;;;;;;4.80;3.20;;;;;;;8.50;100.00;98300.75;436176;1250;138948;-63
2023/11/15 12:42:28;;;;;;;4.70;3.70;;;;;;;8.22;100.00;98326.50;435913;1253;138686;-65
2023/11/15 12:52:38;;;;;;;4.80;4.30;;;;;;;8.02;100.00;98341.45;435597;1253;138760;-64
2023/11/15 13:02:52;;;;;;;3.10;2.80;;;;;;;7.90;100.00;98359.20;435670;1250;139084;-75
2023/11/15 13:13:01;;;;;;;4.60;2.40;;;;;;;7.80;100.00;98361.96;439426;1251;138543;-75
2023/11/15 13:23:08;;;;;;;1.90;1.70;;;;;;;7.74;100.00;98393.95;439341;1249;138659;-78
2023/11/15 13:33:17;;;;;;;3.00;2.80;;;;;;;7.66;100.00;98411.77;437233;1250;138589;-78
2023/11/15 13:43:24;;;;;;;2.70;2.50;;;;;;;7.54;100.00;98426.19;439475;1251;138750;-68
2023/11/15 13:53:30;;;;;;;2.30;2.10;;;;;;;7.43;100.00;98448.71;439682;1250;139050;-65
2023/11/15 14:03:37;;;;;;;3.10;2.60;;;;;;;7.35;100.00;98469.23;435910;1253;138591;-71
2023/11/15 14:13:42;;;;;;;;;;;;;;;7.20;100.00;98514.67;438204;1253;140939;-66
2023/11/15 14:23:49;;;;;;;3.40;3.00;;;;;;;6.90;100.00;98539.93;436113;1253;125211;-67
2023/11/15 14:33:56;;;;;;;5.10;4.60;;;;;;;6.53;100.00;98567.34;436863;1254;138919;-73
2023/11/15 14:44:03;;;;;;;7.80;6.10;;;;;;;6.30;100.00;98585.65;439819;1251;138621;-77
2023/11/15 14:54:10;;;;;;;7.00;6.30;;;;;;;6.10;100.00;98593.64;439771;1249;138590;-71
2023/11/15 15:04:16;;;;;;;9.80;7.30;;;;;;;5.96;100.00;98603.19;436838;1250;140307;-66
2023/11/15 15:14:23;;;;;;;8.10;7.30;;;;;;;5.82;100.00;98615.29;435723;1254;139731;-74
2023/11/15 15:24:31;;;;;;;10.10;9.00;;;;;;;5.72;100.00;98636.89;436862;1249;138632;-70
2023/11/15 15:34:37;;;;;;;10.40;9.40;;;;;;;5.68;100.00;98660.20;436512;1253;139316;-70
2023/11/15 15:44:46;;;;;;;8.60;7.10;;;;;;;5.65;100.00;98684.73;436198;1252;139343;-72
2023/11/15 15:54:52;;;;;;;6.70;5.60;;;;;;;5.55;100.00;98707.52;438288;1249;139717;-71
2023/11/15 16:04:58;;;;;;;6.20;5.00;;;;;;;5.44;100.00;98731.74;435754;1251;139014;-71
2023/11/15 16:15:06;;;;;;;5.40;4.90;;;;;;;5.34;100.00;98755.53;436219;1251;138805;-70
2023/11/15 16:25:12;;;;;;;6.20;5.50;;;;;;;5.18;100.00;98773.45;436127;1250;138710;-71
2023/11/15 16:35:19;;;;;;;7.90;5.70;;;;;;;4.92;100.00;98802.36;435697;1251;138593;-72
2023/11/15 16:45:27;;;;;;;7.80;6.90;;;;;;;4.61;100.00;98827.56;435893;1250;138717;-70
2023/11/15 16:55:34;;;;;;;8.00;7.20;;;;;;;4.32;100.00;98854.36;436186;1250;138610;-70
2023/11/15 17:05:40;;;;;;;7.70;6.80;;;;;;;4.17;100.00;98869.77;435606;1254;138619;-70
2023/11/15 17:15:49;;;;;;;9.10;8.20;;;;;;;4.03;100.00;98877.55;435572;1251;138677;-71
2023/11/15 17:25:55;;;;;;;11.40;9.70;;;;;;;3.98;100.00;98900.16;435936;1254;139950;-71
2023/11/15 17:36:02;;;;;;;10.40;8.60;;;;;;;3.98;100.00;98920.23;436136;1250;139588;-70
2023/11/15 17:46:08;;;;;;;11.10;8.90;;;;;;;4.06;100.00;98946.02;436189;1250;139341;-70
2023/11/15 17:56:15;;;;;;;11.00;9.90;;;;;;;4.18;100.00;98969.21;438014;1252;139296;-70
2023/11/15 18:06:25;;;;;;;14.60;10.60;;;;;;;4.26;100.00;98981.49;436125;1251;139095;-71
2023/11/15 18:16:32;;;;;;;12.00;9.90;;;;;;;4.31;100.00;98997.70;435832;1251;139536;-72
2023/11/15 18:26:41;;;;;;;14.10;10.30;;;;;;;4.35;100.00;99008.05;435844;1253;138899;-72
2023/11/15 18:36:48;;;;;;;11.00;9.50;;;;;;;4.40;100.00;99019.97;436429;1254;140659;-71
2023/11/15 18:46:55;;;;;;;12.30;10.70;;;;;;;4.45;100.00;99031.66;436706;1253;139640;-63
2023/11/15 18:57:01;;;;;;;9.40;8.20;;;;;;;4.53;100.00;99042.59;436499;1250;139092;-63
2023/11/15 19:07:08;;;;;;;11.60;9.00;;;;;;;4.60;100.00;99051.28;436160;1253;140660;-62
2023/11/15 19:17:16;;;;;;;13.70;9.70;;;;;;;4.65;100.00;99065.05;436937;1250;139579;-63
2023/11/15 19:27:22;;;;;;;10.80;9.10;;;;;;;4.69;100.00;99078.58;437090;1253;138943;-65
2023/11/15 19:37:30;;;;;;;11.50;9.80;;;;;;;4.71;100.00;99092.89;436236;1253;138885;-62
2023/11/15 19:47:36;;;;;;;14.40;10.50;;;;;;;4.73;100.00;99098.65;437564;1252;139760;-63
2023/11/15 19:57:42;;;;;;;14.50;12.10;;;;;;;4.69;100.00;99107.34;436419;1253;139593;-63
2023/11/15 20:07:49;;;;;;;20.00;14.10;;;;;;;4.56;100.00;99117.84;436417;1250;139447;-63
2023/11/15 20:17:55;;;;;;;18.30;14.30;;;;;;;4.39;100.00;99129.19;436452;1250;139992;-63
2023/11/15 20:28:02;;;;;;;16.20;14.10;;;;;;;4.25;100.00;99141.45;435708;1251;139806;-63
2023/11/15 20:38:10;;;;;;;14.70;11.50;;;;;;;3.97;100.00;99147.48;436003;1253;139043;-63
2023/11/15 20:48:20;;;;;;;14.80;12.00;;;;;;;3.71;100.00;99154.52;436442;1254;140355;-63
2023/11/15 20:58:27;;;;;;;11.60;9.90;;;;;;;3.36;100.00;99161.16;436186;1254;140032;-63
2023/11/15 21:08:37;;;;;;;14.50;11.50;;;;;;;3.02;100.00;99165.27;436543;1254;139832;-62
2023/11/15 21:18:45;;;;;;;14.50;11.00;;;;;;;2.73;100.00;99174.34;436169;1253;138997;-64
2023/11/15 21:28:54;;;;;;;13.50;10.80;;;;;;;2.46;100.00;99182.45;435564;1255;138995;-63
2023/11/15 21:39:01;;;;;;;17.00;12.30;;;;;;;2.25;100.00;99189.77;436187;1254;139892;-63
2023/11/15 21:49:08;;;;;;;18.00;13.30;;;;;;;2.05;100.00;99196.50;437154;1254;140297;-64
2023/11/15 21:59:15;;;;;;;16.10;12.70;;;;;;;1.86;100.00;99208.05;436287;1255;140394;-63
2023/11/15 22:09:22;;;;;;;17.90;13.70;;;;;;;1.73;100.00;99223.14;436761;1250;139317;-63
2023/11/15 22:19:30;;;;;;;15.40;13.70;;;;;;;1.61;100.00;99236.49;437103;1253;139788;-63
2023/11/15 22:29:36;;;;;;;22.80;15.40;;;;;;;1.44;100.00;99239.80;436291;1250;141127;-63
2023/11/15 22:39:43;;;;;;;17.00;12.00;;;;;;;1.24;100.00;99249.38;435805;1253;139422;-63
2023/11/15 22:49:48;;;;;;;;;;;;;;;1.07;100.00;99256.10;436335;1254;139058;-63
2023/11/15 22:59:54;;;;;;;14.80;12.20;;;;;;;0.94;100.00;99264.92;436132;1253;125628;-63
2023/11/15 23:10:00;;;;;;;16.30;12.40;;;;;;;0.79;100.00;99271.57;436263;1253;139168;-63
2023/11/15 23:20:09;;;;;;;20.10;14.10;;;;;;;0.61;100.00;99276.73;436481;1254;139156;-63
2023/11/15 23:30:16;;;;;;;17.50;13.70;;;;;;;0.43;100.00;99282.05;436355;1250;139293;-62
2023/11/15 23:40:20;;;;;;;;;;;;;;;0.27;100.00;99293.65;436286;1253;140158;-63
2023/11/15 23:50:27;;;;;;;14.10;11.80;;;;;;;0.12;100.00;99302.84;435813;1254;143520;-62
